sensor_id;sensor_type;location;lat;lon;timestamp;P1;durP1;ratioP1;P2;durP2;ratioP2
23668;SDS011;12011;47.422;15.018;2023-12-28T00:00:07;14.87;;;14.56;;
23668;SDS011;12011;47.422;15.018;2023-12-28T00:02:42;14.73;;;14.48;;
23668;SDS011;12011;47.422;15.018;2023-12-28T00:05:14;16.93;;;16.75;;
23668;SDS011;12011;47.422;15.018;2023-12-28T00:07:55;18.74;;;18.40;;
23668;SDS011;12011;47.422;15.018;2023-12-28T00:10:25;18.05;;;17.70;;
23668;SDS011;12011;47.422;15.018;2023-12-28T00:12:57;17.31;;;17.02;;
23668;SDS011;12011;47.422;15.018;2023-12-28T00:15:28;17.04;;;16.66;;
23668;SDS011;12011;47.422;15.018;2023-12-28T00:18:03;15.63;;;15.42;;
23668;SDS011;12011;47.422;15.018;2023-12-28T00:20:39;16.69;;;16.42;;
23668;SDS011;12011;47.422;15.018;2023-12-28T00:23:16;18.55;;;18.28;;
23668;SDS011;12011;47.422;15.018;2023-12-28T00:25:51;17.66;;;17.46;;
23668;SDS011;12011;47.422;15.018;2023-12-28T00:28:23;15.79;;;15.58;;
23668;SDS011;12011;47.422;15.018;2023-12-28T00:30:53;17.11;;;16.79;;
23668;SDS011;12011;47.422;15.018;2023-12-28T00:33:23;14.30;;;14.10;;
23668;SDS011;12011;47.422;15.018;2023-12-28T00:36:02;11.57;;;11.39;;
23668;SDS011;12011;47.422;15.018;2023-12-28T00:38:39;12.69;;;12.46;;
23668;SDS011;12011;47.422;15.018;2023-12-28T00:41:17;14.66;;;14.34;;
23668;SDS011;12011;47.422;15.018;2023-12-28T00:43:56;15.34;;;15.10;;
23668;SDS011;12011;47.422;15.018;2023-12-28T00:46:30;14.37;;;14.04;;
23668;SDS011;12011;47.422;15.018;2023-12-28T00:49:06;13.02;;;12.79;;
23668;SDS011;12011;47.422;15.018;2023-12-28T00:51:39;10.34;;;10.19;;
23668;SDS011;12011;47.422;15.018;2023-12-28T00:54:12;10.07;;;9.91;;
23668;SDS011;12011;47.422;15.018;2023-12-28T00:56:44;9.67;;;9.55;;
23668;SDS011;12011;47.422;15.018;2023-12-28T00:59:16;8.99;;;8.88;;
23668;SDS011;12011;47.422;15.018;2023-12-28T01:01:47;9.15;;;8.99;;
23668;SDS011;12011;47.422;15.018;2023-12-28T01:04:23;9.63;;;9.44;;
23668;SDS011;12011;47.422;15.018;2023-12-28T01:06:56;8.99;;;8.77;;
23668;SDS011;12011;47.422;15.018;2023-12-28T01:09:30;8.75;;;8.55;;
23668;SDS011;12011;47.422;15.018;2023-12-28T01:12:05;9.21;;;8.95;;
23668;SDS011;12011;47.422;15.018;2023-12-28T01:14:46;8.89;;;8.67;;
23668;SDS011;12011;47.422;15.018;2023-12-28T01:17:16;9.42;;;9.22;;
23668;SDS011;12011;47.422;15.018;2023-12-28T01:19:49;9.38;;;9.19;;
23668;SDS011;12011;47.422;15.018;2023-12-28T01:22:19;9.50;;;9.41;;
23668;SDS011;12011;47.422;15.018;2023-12-28T01:24:53;9.08;;;8.99;;
23668;SDS011;12011;47.422;15.018;2023-12-28T01:27:27;10.31;;;10.16;;
23668;SDS011;12011;47.422;15.018;2023-12-28T01:29:57;10.81;;;10.66;;
23668;SDS011;12011;47.422;15.018;2023-12-28T01:32:32;10.30;;;10.10;;
23668;SDS011;12011;47.422;15.018;2023-12-28T01:35:05;9.70;;;9.60;;
23668;SDS011;12011;47.422;15.018;2023-12-28T01:37:36;9.89;;;9.74;;
23668;SDS011;12011;47.422;15.018;2023-12-28T01:40:10;12.34;;;12.05;;
23668;SDS011;12011;47.422;15.018;2023-12-28T01:42:41;13.33;;;13.07;;
23668;SDS011;12011;47.422;15.018;2023-12-28T01:45:19;12.01;;;11.84;;
23668;SDS011;12011;47.422;15.018;2023-12-28T01:47:53;11.19;;;10.94;;
23668;SDS011;12011;47.422;15.018;2023-12-28T01:50:41;10.18;;;9.95;;
23668;SDS011;12011;47.422;15.018;2023-12-28T01:53:13;10.24;;;10.08;;
23668;SDS011;12011;47.422;15.018;2023-12-28T01:55:53;9.12;;;8.96;;
23668;SDS011;12011;47.422;15.018;2023-12-28T01:58:25;10.74;;;10.61;;
23668;SDS011;12011;47.422;15.018;2023-12-28T02:01:02;10.26;;;10.13;;
23668;SDS011;12011;47.422;15.018;2023-12-28T02:03:35;8.77;;;8.65;;
23668;SDS011;12011;47.422;15.018;2023-12-28T02:06:07;7.32;;;7.16;;
23668;SDS011;12011;47.422;15.018;2023-12-28T02:08:42;7.42;;;7.30;;
23668;SDS011;12011;47.422;15.018;2023-12-28T02:11:15;7.24;;;7.12;;
23668;SDS011;12011;47.422;15.018;2023-12-28T02:13:50;7.31;;;7.19;;
23668;SDS011;12011;47.422;15.018;2023-12-28T02:16:23;6.76;;;6.69;;
23668;SDS011;12011;47.422;15.018;2023-12-28T02:19:03;6.11;;;6.08;;
23668;SDS011;12011;47.422;15.018;2023-12-28T02:21:54;6.42;;;6.37;;
23668;SDS011;12011;47.422;15.018;2023-12-28T02:24:29;6.45;;;6.41;;
23668;SDS011;12011;47.422;15.018;2023-12-28T02:27:04;6.15;;;6.10;;
23668;SDS011;12011;47.422;15.018;2023-12-28T02:29:33;5.23;;;5.16;;
23668;SDS011;12011;47.422;15.018;2023-12-28T02:32:05;5.27;;;5.22;;
23668;SDS011;12011;47.422;15.018;2023-12-28T02:34:52;6.25;;;6.17;;
23668;SDS011;12011;47.422;15.018;2023-12-28T02:37:35;8.99;;;8.84;;
23668;SDS011;12011;47.422;15.018;2023-12-28T02:40:14;9.03;;;8.94;;
23668;SDS011;12011;47.422;15.018;2023-12-28T02:42:53;9.70;;;9.58;;
23668;SDS011;12011;47.422;15.018;2023-12-28T02:45:28;10.34;;;10.08;;
23668;SDS011;12011;47.422;15.018;2023-12-28T02:47:59;9.52;;;9.37;;
23668;SDS011;12011;47.422;15.018;2023-12-28T02:50:35;8.84;;;8.73;;
23668;SDS011;12011;47.422;15.018;2023-12-28T02:53:10;7.64;;;7.49;;
23668;SDS011;12011;47.422;15.018;2023-12-28T02:55:46;6.71;;;6.55;;
23668;SDS011;12011;47.422;15.018;2023-12-28T02:58:20;6.57;;;6.47;;
23668;SDS011;12011;47.422;15.018;2023-12-28T03:00:55;6.64;;;6.57;;
23668;SDS011;12011;47.422;15.018;2023-12-28T03:03:30;6.98;;;6.91;;
23668;SDS011;12011;47.422;15.018;2023-12-28T03:06:01;6.36;;;6.29;;
23668;SDS011;12011;47.422;15.018;2023-12-28T03:08:31;5.16;;;5.11;;
23668;SDS011;12011;47.422;15.018;2023-12-28T03:11:04;5.38;;;5.31;;
23668;SDS011;12011;47.422;15.018;2023-12-28T03:13:39;5.60;;;5.56;;
23668;SDS011;12011;47.422;15.018;2023-12-28T03:16:17;5.46;;;5.43;;
23668;SDS011;12011;47.422;15.018;2023-12-28T03:18:46;5.42;;;5.35;;
23668;SDS011;12011;47.422;15.018;2023-12-28T03:21:17;5.64;;;5.53;;
23668;SDS011;12011;47.422;15.018;2023-12-28T03:23:49;5.11;;;5.05;;
23668;SDS011;12011;47.422;15.018;2023-12-28T03:26:24;5.19;;;5.14;;
23668;SDS011;12011;47.422;15.018;2023-12-28T03:29:05;5.40;;;5.37;;
23668;SDS011;12011;47.422;15.018;2023-12-28T03:31:39;5.37;;;5.33;;
23668;SDS011;12011;47.422;15.018;2023-12-28T03:34:21;5.35;;;5.27;;
23668;SDS011;12011;47.422;15.018;2023-12-28T03:37:01;5.28;;;5.17;;
23668;SDS011;12011;47.422;15.018;2023-12-28T03:39:33;5.27;;;5.21;;
23668;SDS011;12011;47.422;15.018;2023-12-28T03:42:02;5.35;;;5.32;;
23668;SDS011;12011;47.422;15.018;2023-12-28T03:44:35;5.46;;;5.42;;
23668;SDS011;12011;47.422;15.018;2023-12-28T03:47:05;5.09;;;5.02;;
23668;SDS011;12011;47.422;15.018;2023-12-28T03:49:35;5.28;;;5.22;;
23668;SDS011;12011;47.422;15.018;2023-12-28T03:52:05;5.61;;;5.56;;
23668;SDS011;12011;47.422;15.018;2023-12-28T03:54:34;6.70;;;6.66;;
23668;SDS011;12011;47.422;15.018;2023-12-28T03:57:04;8.57;;;8.51;;
23668;SDS011;12011;47.422;15.018;2023-12-28T03:59:36;8.91;;;8.79;;
23668;SDS011;12011;47.422;15.018;2023-12-28T04:02:06;8.78;;;8.70;;
23668;SDS011;12011;47.422;15.018;2023-12-28T04:04:35;7.79;;;7.75;;
23668;SDS011;12011;47.422;15.018;2023-12-28T04:07:05;6.22;;;6.18;;
23668;SDS011;12011;47.422;15.018;2023-12-28T04:09:34;6.47;;;6.42;;
23668;SDS011;12011;47.422;15.018;2023-12-28T04:12:04;5.68;;;5.62;;
23668;SDS011;12011;47.422;15.018;2023-12-28T04:14:37;5.37;;;5.33;;
23668;SDS011;12011;47.422;15.018;2023-12-28T04:17:06;5.32;;;5.25;;
23668;SDS011;12011;47.422;15.018;2023-12-28T04:19:36;5.33;;;5.28;;
23668;SDS011;12011;47.422;15.018;2023-12-28T04:22:06;5.38;;;5.32;;
23668;SDS011;12011;47.422;15.018;2023-12-28T04:24:36;5.05;;;4.99;;
23668;SDS011;12011;47.422;15.018;2023-12-28T04:27:06;5.61;;;5.58;;
23668;SDS011;12011;47.422;15.018;2023-12-28T04:29:38;5.86;;;5.80;;
23668;SDS011;12011;47.422;15.018;2023-12-28T04:32:07;6.35;;;6.26;;
23668;SDS011;12011;47.422;15.018;2023-12-28T04:34:37;6.56;;;6.51;;
23668;SDS011;12011;47.422;15.018;2023-12-28T04:37:08;5.56;;;5.53;;
23668;SDS011;12011;47.422;15.018;2023-12-28T04:39:38;5.56;;;5.52;;
23668;SDS011;12011;47.422;15.018;2023-12-28T04:42:07;5.87;;;5.83;;
23668;SDS011;12011;47.422;15.018;2023-12-28T04:44:40;5.11;;;5.08;;
23668;SDS011;12011;47.422;15.018;2023-12-28T04:47:10;4.47;;;4.44;;
23668;SDS011;12011;47.422;15.018;2023-12-28T04:49:39;5.16;;;5.13;;
23668;SDS011;12011;47.422;15.018;2023-12-28T04:52:09;4.74;;;4.68;;
23668;SDS011;12011;47.422;15.018;2023-12-28T04:54:39;4.88;;;4.83;;
23668;SDS011;12011;47.422;15.018;2023-12-28T04:57:09;4.36;;;4.31;;
23668;SDS011;12011;47.422;15.018;2023-12-28T04:59:41;4.79;;;4.73;;
23668;SDS011;12011;47.422;15.018;2023-12-28T05:02:11;4.91;;;4.84;;
23668;SDS011;12011;47.422;15.018;2023-12-28T05:04:41;4.81;;;4.76;;
23668;SDS011;12011;47.422;15.018;2023-12-28T05:07:11;4.84;;;4.81;;
23668;SDS011;12011;47.422;15.018;2023-12-28T05:09:41;4.80;;;4.76;;
23668;SDS011;12011;47.422;15.018;2023-12-28T05:12:11;5.19;;;5.14;;
23668;SDS011;12011;47.422;15.018;2023-12-28T05:14:43;5.34;;;5.32;;
23668;SDS011;12011;47.422;15.018;2023-12-28T05:17:12;7.01;;;6.99;;
23668;SDS011;12011;47.422;15.018;2023-12-28T05:19:42;7.79;;;7.71;;
23668;SDS011;12011;47.422;15.018;2023-12-28T05:22:11;6.99;;;6.89;;
23668;SDS011;12011;47.422;15.018;2023-12-28T05:24:41;6.21;;;6.16;;
23668;SDS011;12011;47.422;15.018;2023-12-28T05:27:10;6.84;;;6.73;;
23668;SDS011;12011;47.422;15.018;2023-12-28T05:29:42;6.56;;;6.43;;
23668;SDS011;12011;47.422;15.018;2023-12-28T05:32:12;6.10;;;6.04;;
23668;SDS011;12011;47.422;15.018;2023-12-28T05:34:41;5.41;;;5.39;;
23668;SDS011;12011;47.422;15.018;2023-12-28T05:37:11;6.38;;;6.38;;
23668;SDS011;12011;47.422;15.018;2023-12-28T05:39:41;6.08;;;6.07;;
23668;SDS011;12011;47.422;15.018;2023-12-28T05:42:10;6.29;;;6.25;;
23668;SDS011;12011;47.422;15.018;2023-12-28T05:44:42;5.38;;;5.35;;
23668;SDS011;12011;47.422;15.018;2023-12-28T05:47:12;5.34;;;5.30;;
23668;SDS011;12011;47.422;15.018;2023-12-28T05:49:41;5.64;;;5.57;;
23668;SDS011;12011;47.422;15.018;2023-12-28T05:52:11;5.89;;;5.84;;
23668;SDS011;12011;47.422;15.018;2023-12-28T05:54:44;5.52;;;5.48;;
23668;SDS011;12011;47.422;15.018;2023-12-28T05:57:13;5.03;;;5.00;;
23668;SDS011;12011;47.422;15.018;2023-12-28T05:59:45;5.45;;;5.41;;
23668;SDS011;12011;47.422;15.018;2023-12-28T06:02:15;5.26;;;5.22;;
23668;SDS011;12011;47.422;15.018;2023-12-28T06:04:44;5.44;;;5.38;;
23668;SDS011;12011;47.422;15.018;2023-12-28T06:07:11;5.56;;;5.48;;
23668;SDS011;12011;47.422;15.018;2023-12-28T06:09:40;5.07;;;5.05;;
23668;SDS011;12011;47.422;15.018;2023-12-28T06:12:11;5.57;;;5.56;;
23668;SDS011;12011;47.422;15.018;2023-12-28T06:14:41;9.35;;;9.32;;
23668;SDS011;12011;47.422;15.018;2023-12-28T06:17:13;9.68;;;9.62;;
23668;SDS011;12011;47.422;15.018;2023-12-28T06:19:44;9.29;;;9.22;;
23668;SDS011;12011;47.422;15.018;2023-12-28T06:22:15;9.64;;;9.59;;
23668;SDS011;12011;47.422;15.018;2023-12-28T06:24:45;10.85;;;10.74;;
23668;SDS011;12011;47.422;15.018;2023-12-28T06:27:14;10.13;;;10.02;;
23668;SDS011;12011;47.422;15.018;2023-12-28T06:29:46;8.49;;;8.42;;
23668;SDS011;12011;47.422;15.018;2023-12-28T06:32:16;8.58;;;8.46;;
23668;SDS011;12011;47.422;15.018;2023-12-28T06:34:45;7.58;;;7.53;;
23668;SDS011;12011;47.422;15.018;2023-12-28T06:37:15;7.27;;;7.23;;
23668;SDS011;12011;47.422;15.018;2023-12-28T06:39:45;6.99;;;6.94;;
23668;SDS011;12011;47.422;15.018;2023-12-28T06:42:14;5.95;;;5.94;;
23668;SDS011;12011;47.422;15.018;2023-12-28T06:44:47;5.80;;;5.78;;
23668;SDS011;12011;47.422;15.018;2023-12-28T06:47:16;6.43;;;6.39;;
23668;SDS011;12011;47.422;15.018;2023-12-28T06:49:45;7.19;;;7.14;;
23668;SDS011;12011;47.422;15.018;2023-12-28T06:52:15;7.74;;;7.64;;
23668;SDS011;12011;47.422;15.018;2023-12-28T06:54:44;9.98;;;9.94;;
23668;SDS011;12011;47.422;15.018;2023-12-28T06:57:14;9.50;;;9.50;;
23668;SDS011;12011;47.422;15.018;2023-12-28T06:59:43;8.57;;;8.56;;
23668;SDS011;12011;47.422;15.018;2023-12-28T07:02:16;8.74;;;8.70;;
23668;SDS011;12011;47.422;15.018;2023-12-28T07:04:45;7.56;;;7.55;;
23668;SDS011;12011;47.422;15.018;2023-12-28T07:07:14;7.15;;;7.13;;
23668;SDS011;12011;47.422;15.018;2023-12-28T07:09:44;6.91;;;6.89;;
23668;SDS011;12011;47.422;15.018;2023-12-28T07:12:13;6.80;;;6.75;;
23668;SDS011;12011;47.422;15.018;2023-12-28T07:14:48;7.47;;;7.44;;
23668;SDS011;12011;47.422;15.018;2023-12-28T07:17:18;7.33;;;7.32;;
23668;SDS011;12011;47.422;15.018;2023-12-28T07:19:47;9.77;;;9.72;;
23668;SDS011;12011;47.422;15.018;2023-12-28T07:22:17;13.16;;;13.08;;
23668;SDS011;12011;47.422;15.018;2023-12-28T07:24:46;14.22;;;14.09;;
23668;SDS011;12011;47.422;15.018;2023-12-28T07:27:16;13.65;;;13.52;;
23668;SDS011;12011;47.422;15.018;2023-12-28T07:29:48;12.93;;;12.82;;
23668;SDS011;12011;47.422;15.018;2023-12-28T07:32:17;11.51;;;11.39;;
23668;SDS011;12011;47.422;15.018;2023-12-28T07:34:51;11.24;;;11.10;;
23668;SDS011;12011;47.422;15.018;2023-12-28T07:37:21;10.53;;;10.43;;
23668;SDS011;12011;47.422;15.018;2023-12-28T07:39:50;9.54;;;9.41;;
23668;SDS011;12011;47.422;15.018;2023-12-28T07:42:20;12.51;;;12.34;;
23668;SDS011;12011;47.422;15.018;2023-12-28T07:44:52;21.44;;;21.18;;
23668;SDS011;12011;47.422;15.018;2023-12-28T07:47:22;22.44;;;22.23;;
23668;SDS011;12011;47.422;15.018;2023-12-28T07:49:52;16.62;;;16.51;;
23668;SDS011;12011;47.422;15.018;2023-12-28T07:52:22;18.58;;;18.42;;
23668;SDS011;12011;47.422;15.018;2023-12-28T07:54:51;16.80;;;16.63;;
23668;SDS011;12011;47.422;15.018;2023-12-28T07:57:21;12.24;;;12.18;;
23668;SDS011;12011;47.422;15.018;2023-12-28T07:59:53;14.19;;;14.10;;
23668;SDS011;12011;47.422;15.018;2023-12-28T08:02:22;18.05;;;17.92;;
23668;SDS011;12011;47.422;15.018;2023-12-28T08:04:52;18.74;;;18.63;;
23668;SDS011;12011;47.422;15.018;2023-12-28T08:07:21;19.29;;;19.28;;
23668;SDS011;12011;47.422;15.018;2023-12-28T08:09:51;21.98;;;21.95;;
23668;SDS011;12011;47.422;15.018;2023-12-28T08:12:20;21.03;;;20.92;;
23668;SDS011;12011;47.422;15.018;2023-12-28T08:14:50;16.14;;;16.09;;
23668;SDS011;12011;47.422;15.018;2023-12-28T08:17:22;13.29;;;13.22;;
23668;SDS011;12011;47.422;15.018;2023-12-28T08:19:52;9.26;;;9.19;;
23668;SDS011;12011;47.422;15.018;2023-12-28T08:22:22;8.63;;;8.57;;
23668;SDS011;12011;47.422;15.018;2023-12-28T08:24:51;11.71;;;11.69;;
23668;SDS011;12011;47.422;15.018;2023-12-28T08:27:21;23.46;;;23.39;;
23668;SDS011;12011;47.422;15.018;2023-12-28T08:29:53;24.38;;;24.25;;
23668;SDS011;12011;47.422;15.018;2023-12-28T08:32:22;21.65;;;21.61;;
23668;SDS011;12011;47.422;15.018;2023-12-28T08:34:52;10.10;;;10.09;;
23668;SDS011;12011;47.422;15.018;2023-12-28T08:37:21;10.42;;;10.40;;
23668;SDS011;12011;47.422;15.018;2023-12-28T08:39:51;11.34;;;11.33;;
23668;SDS011;12011;47.422;15.018;2023-12-28T08:42:20;12.21;;;12.09;;
23668;SDS011;12011;47.422;15.018;2023-12-28T08:44:53;13.36;;;13.18;;
23668;SDS011;12011;47.422;15.018;2023-12-28T08:47:22;18.58;;;18.52;;
23668;SDS011;12011;47.422;15.018;2023-12-28T08:49:51;18.11;;;18.08;;
23668;SDS011;12011;47.422;15.018;2023-12-28T08:52:21;18.38;;;18.27;;
23668;SDS011;12011;47.422;15.018;2023-12-28T08:54:50;19.62;;;19.57;;
23668;SDS011;12011;47.422;15.018;2023-12-28T08:57:20;17.86;;;17.81;;
23668;SDS011;12011;47.422;15.018;2023-12-28T08:59:52;17.14;;;17.14;;
23668;SDS011;12011;47.422;15.018;2023-12-28T09:02:22;16.97;;;16.91;;
23668;SDS011;12011;47.422;15.018;2023-12-28T09:04:51;16.80;;;16.78;;
23668;SDS011;12011;47.422;15.018;2023-12-28T09:07:21;16.50;;;16.43;;
23668;SDS011;12011;47.422;15.018;2023-12-28T09:09:50;16.47;;;16.42;;
23668;SDS011;12011;47.422;15.018;2023-12-28T09:12:20;16.20;;;16.13;;
23668;SDS011;12011;47.422;15.018;2023-12-28T09:14:50;18.08;;;17.97;;
23668;SDS011;12011;47.422;15.018;2023-12-28T09:17:22;13.62;;;13.57;;
23668;SDS011;12011;47.422;15.018;2023-12-28T09:19:51;15.00;;;14.93;;
23668;SDS011;12011;47.422;15.018;2023-12-28T09:22:21;13.76;;;13.60;;
23668;SDS011;12011;47.422;15.018;2023-12-28T09:24:51;12.00;;;11.89;;
23668;SDS011;12011;47.422;15.018;2023-12-28T09:27:20;11.81;;;11.66;;
23668;SDS011;12011;47.422;15.018;2023-12-28T09:29:50;12.47;;;12.32;;
23668;SDS011;12011;47.422;15.018;2023-12-28T09:32:22;10.50;;;10.44;;
23668;SDS011;12011;47.422;15.018;2023-12-28T09:34:51;12.68;;;12.57;;
23668;SDS011;12011;47.422;15.018;2023-12-28T09:37:20;13.46;;;13.31;;
23668;SDS011;12011;47.422;15.018;2023-12-28T09:39:50;13.05;;;12.89;;
23668;SDS011;12011;47.422;15.018;2023-12-28T09:42:23;11.64;;;11.49;;
23668;SDS011;12011;47.422;15.018;2023-12-28T09:45:00;9.28;;;9.17;;
23668;SDS011;12011;47.422;15.018;2023-12-28T09:47:32;8.84;;;8.80;;
23668;SDS011;12011;47.422;15.018;2023-12-28T09:50:02;7.63;;;7.58;;
23668;SDS011;12011;47.422;15.018;2023-12-28T09:52:32;8.74;;;8.70;;
23668;SDS011;12011;47.422;15.018;2023-12-28T09:55:01;9.11;;;9.05;;
23668;SDS011;12011;47.422;15.018;2023-12-28T09:57:32;8.55;;;8.52;;
23668;SDS011;12011;47.422;15.018;2023-12-28T10:00:04;7.80;;;7.78;;
23668;SDS011;12011;47.422;15.018;2023-12-28T10:02:40;7.79;;;7.74;;
23668;SDS011;12011;47.422;15.018;2023-12-28T10:05:13;7.24;;;7.17;;
23668;SDS011;12011;47.422;15.018;2023-12-28T10:07:44;4.42;;;4.39;;
23668;SDS011;12011;47.422;15.018;2023-12-28T10:10:15;4.54;;;4.52;;
23668;SDS011;12011;47.422;15.018;2023-12-28T10:12:47;4.04;;;4.02;;
23668;SDS011;12011;47.422;15.018;2023-12-28T10:15:19;4.01;;;3.96;;
23668;SDS011;12011;47.422;15.018;2023-12-28T10:17:51;3.98;;;3.96;;
23668;SDS011;12011;47.422;15.018;2023-12-28T10:20:20;4.27;;;4.24;;
23668;SDS011;12011;47.422;15.018;2023-12-28T10:22:50;4.97;;;4.92;;
23668;SDS011;12011;47.422;15.018;2023-12-28T10:25:19;4.53;;;4.48;;
23668;SDS011;12011;47.422;15.018;2023-12-28T10:27:50;4.84;;;4.79;;
23668;SDS011;12011;47.422;15.018;2023-12-28T10:30:22;4.64;;;4.57;;
23668;SDS011;12011;47.422;15.018;2023-12-28T10:32:52;3.91;;;3.84;;
23668;SDS011;12011;47.422;15.018;2023-12-28T10:35:21;4.29;;;4.23;;
23668;SDS011;12011;47.422;15.018;2023-12-28T10:37:51;5.24;;;5.22;;
23668;SDS011;12011;47.422;15.018;2023-12-28T10:40:22;5.40;;;5.38;;
23668;SDS011;12011;47.422;15.018;2023-12-28T10:42:54;5.49;;;5.46;;
23668;SDS011;12011;47.422;15.018;2023-12-28T10:45:32;5.52;;;5.47;;
23668;SDS011;12011;47.422;15.018;2023-12-28T10:48:04;4.79;;;4.75;;
23668;SDS011;12011;47.422;15.018;2023-12-28T10:50:37;4.40;;;4.36;;
23668;SDS011;12011;47.422;15.018;2023-12-28T10:53:15;4.62;;;4.59;;
23668;SDS011;12011;47.422;15.018;2023-12-28T10:56:00;4.16;;;4.13;;
23668;SDS011;12011;47.422;15.018;2023-12-28T10:58:56;4.67;;;4.64;;
23668;SDS011;12011;47.422;15.018;2023-12-28T11:01:46;6.68;;;6.62;;
23668;SDS011;12011;47.422;15.018;2023-12-28T11:04:22;5.53;;;5.46;;
23668;SDS011;12011;47.422;15.018;2023-12-28T11:07:01;6.33;;;6.26;;
23668;SDS011;12011;47.422;15.018;2023-12-28T11:09:31;6.28;;;6.23;;
23668;SDS011;12011;47.422;15.018;2023-12-28T11:12:03;6.51;;;6.45;;
23668;SDS011;12011;47.422;15.018;2023-12-28T11:14:36;5.79;;;5.76;;
23668;SDS011;12011;47.422;15.018;2023-12-28T11:17:12;5.52;;;5.52;;
23668;SDS011;12011;47.422;15.018;2023-12-28T11:19:45;5.52;;;5.51;;
23668;SDS011;12011;47.422;15.018;2023-12-28T11:22:16;5.44;;;5.42;;
23668;SDS011;12011;47.422;15.018;2023-12-28T11:24:47;5.78;;;5.76;;
23668;SDS011;12011;47.422;15.018;2023-12-28T11:27:16;6.08;;;6.02;;
23668;SDS011;12011;47.422;15.018;2023-12-28T11:29:47;6.23;;;6.18;;
23668;SDS011;12011;47.422;15.018;2023-12-28T11:32:20;5.62;;;5.58;;
23668;SDS011;12011;47.422;15.018;2023-12-28T11:34:56;5.86;;;5.81;;
23668;SDS011;12011;47.422;15.018;2023-12-28T11:37:26;5.46;;;5.39;;
23668;SDS011;12011;47.422;15.018;2023-12-28T11:39:59;5.46;;;5.43;;
23668;SDS011;12011;47.422;15.018;2023-12-28T11:42:49;5.31;;;5.28;;
23668;SDS011;12011;47.422;15.018;2023-12-28T11:45:22;5.39;;;5.37;;
23668;SDS011;12011;47.422;15.018;2023-12-28T11:48:01;5.19;;;5.16;;
23668;SDS011;12011;47.422;15.018;2023-12-28T11:50:33;4.43;;;4.37;;
23668;SDS011;12011;47.422;15.018;2023-12-28T11:53:04;4.38;;;4.32;;
23668;SDS011;12011;47.422;15.018;2023-12-28T11:55:34;3.80;;;3.78;;
23668;SDS011;12011;47.422;15.018;2023-12-28T11:58:03;3.68;;;3.67;;
23668;SDS011;12011;47.422;15.018;2023-12-28T12:00:33;4.03;;;4.02;;
23668;SDS011;12011;47.422;15.018;2023-12-28T12:03:05;3.39;;;3.38;;
23668;SDS011;12011;47.422;15.018;2023-12-28T12:05:34;3.03;;;3.03;;
23668;SDS011;12011;47.422;15.018;2023-12-28T12:08:04;2.98;;;2.97;;
23668;SDS011;12011;47.422;15.018;2023-12-28T12:10:36;2.92;;;2.91;;
23668;SDS011;12011;47.422;15.018;2023-12-28T12:13:05;2.57;;;2.57;;
23668;SDS011;12011;47.422;15.018;2023-12-28T12:15:36;2.72;;;2.72;;
23668;SDS011;12011;47.422;15.018;2023-12-28T12:18:08;2.97;;;2.95;;
23668;SDS011;12011;47.422;15.018;2023-12-28T12:20:38;2.91;;;2.88;;
23668;SDS011;12011;47.422;15.018;2023-12-28T12:23:09;2.85;;;2.81;;
23668;SDS011;12011;47.422;15.018;2023-12-28T12:25:40;3.19;;;3.17;;
23668;SDS011;12011;47.422;15.018;2023-12-28T12:28:11;3.43;;;3.41;;
23668;SDS011;12011;47.422;15.018;2023-12-28T12:30:40;3.66;;;3.63;;
23668;SDS011;12011;47.422;15.018;2023-12-28T12:33:22;2.98;;;2.95;;
23668;SDS011;12011;47.422;15.018;2023-12-28T12:35:54;2.80;;;2.78;;
23668;SDS011;12011;47.422;15.018;2023-12-28T12:38:24;2.78;;;2.77;;
23668;SDS011;12011;47.422;15.018;2023-12-28T12:40:54;2.85;;;2.84;;
23668;SDS011;12011;47.422;15.018;2023-12-28T12:43:23;2.83;;;2.83;;
23668;SDS011;12011;47.422;15.018;2023-12-28T12:45:53;3.39;;;3.36;;
23668;SDS011;12011;47.422;15.018;2023-12-28T12:48:26;3.52;;;3.50;;
23668;SDS011;12011;47.422;15.018;2023-12-28T12:50:55;3.54;;;3.53;;
23668;SDS011;12011;47.422;15.018;2023-12-28T12:53:25;3.33;;;3.32;;
23668;SDS011;12011;47.422;15.018;2023-12-28T12:56:02;3.49;;;3.48;;
23668;SDS011;12011;47.422;15.018;2023-12-28T12:58:31;3.47;;;3.45;;
23668;SDS011;12011;47.422;15.018;2023-12-28T13:01:00;3.34;;;3.33;;
23668;SDS011;12011;47.422;15.018;2023-12-28T13:03:33;3.15;;;3.12;;
23668;SDS011;12011;47.422;15.018;2023-12-28T13:06:04;2.78;;;2.76;;
23668;SDS011;12011;47.422;15.018;2023-12-28T13:08:35;3.34;;;3.34;;
23668;SDS011;12011;47.422;15.018;2023-12-28T13:11:05;2.73;;;2.73;;
23668;SDS011;12011;47.422;15.018;2023-12-28T13:13:35;3.03;;;3.03;;
23668;SDS011;12011;47.422;15.018;2023-12-28T13:16:05;3.32;;;3.32;;
23668;SDS011;12011;47.422;15.018;2023-12-28T13:18:37;3.91;;;3.91;;
23668;SDS011;12011;47.422;15.018;2023-12-28T13:21:07;5.17;;;5.17;;
23668;SDS011;12011;47.422;15.018;2023-12-28T13:23:38;5.73;;;5.72;;
23668;SDS011;12011;47.422;15.018;2023-12-28T13:26:08;6.28;;;6.26;;
23668;SDS011;12011;47.422;15.018;2023-12-28T13:28:37;5.58;;;5.55;;
23668;SDS011;12011;47.422;15.018;2023-12-28T13:31:08;5.18;;;5.17;;
23668;SDS011;12011;47.422;15.018;2023-12-28T13:33:40;4.59;;;4.58;;
23668;SDS011;12011;47.422;15.018;2023-12-28T13:36:10;4.41;;;4.40;;
23668;SDS011;12011;47.422;15.018;2023-12-28T13:38:39;4.76;;;4.74;;
23668;SDS011;12011;47.422;15.018;2023-12-28T13:41:09;5.93;;;5.89;;
23668;SDS011;12011;47.422;15.018;2023-12-28T13:43:39;6.79;;;6.75;;
23668;SDS011;12011;47.422;15.018;2023-12-28T13:46:09;6.21;;;6.15;;
23668;SDS011;12011;47.422;15.018;2023-12-28T13:48:41;6.58;;;6.51;;
23668;SDS011;12011;47.422;15.018;2023-12-28T13:51:10;6.40;;;6.35;;
23668;SDS011;12011;47.422;15.018;2023-12-28T13:53:40;7.17;;;7.12;;
23668;SDS011;12011;47.422;15.018;2023-12-28T13:56:10;6.86;;;6.83;;
23668;SDS011;12011;47.422;15.018;2023-12-28T13:58:39;6.68;;;6.66;;
23668;SDS011;12011;47.422;15.018;2023-12-28T14:01:09;6.88;;;6.85;;
23668;SDS011;12011;47.422;15.018;2023-12-28T14:03:42;7.42;;;7.37;;
23668;SDS011;12011;47.422;15.018;2023-12-28T14:06:14;8.59;;;8.48;;
23668;SDS011;12011;47.422;15.018;2023-12-28T14:08:44;8.15;;;8.02;;
23668;SDS011;12011;47.422;15.018;2023-12-28T14:11:14;7.54;;;7.43;;
23668;SDS011;12011;47.422;15.018;2023-12-28T14:13:44;7.55;;;7.44;;
23668;SDS011;12011;47.422;15.018;2023-12-28T14:16:14;7.33;;;7.25;;
23668;SDS011;12011;47.422;15.018;2023-12-28T14:18:46;7.22;;;7.14;;
23668;SDS011;12011;47.422;15.018;2023-12-28T14:21:17;6.71;;;6.62;;
23668;SDS011;12011;47.422;15.018;2023-12-28T14:23:48;6.74;;;6.62;;
23668;SDS011;12011;47.422;15.018;2023-12-28T14:26:19;6.92;;;6.81;;
23668;SDS011;12011;47.422;15.018;2023-12-28T14:28:51;6.74;;;6.68;;
23668;SDS011;12011;47.422;15.018;2023-12-28T14:31:21;6.44;;;6.38;;
23668;SDS011;12011;47.422;15.018;2023-12-28T14:33:54;6.80;;;6.74;;
23668;SDS011;12011;47.422;15.018;2023-12-28T14:36:26;6.69;;;6.62;;
23668;SDS011;12011;47.422;15.018;2023-12-28T14:38:59;6.48;;;6.44;;
23668;SDS011;12011;47.422;15.018;2023-12-28T14:41:30;5.24;;;5.22;;
23668;SDS011;12011;47.422;15.018;2023-12-28T14:44:00;5.57;;;5.54;;
23668;SDS011;12011;47.422;15.018;2023-12-28T14:46:30;6.57;;;6.52;;
23668;SDS011;12011;47.422;15.018;2023-12-28T14:49:03;6.50;;;6.45;;
23668;SDS011;12011;47.422;15.018;2023-12-28T14:51:32;6.27;;;6.22;;
23668;SDS011;12011;47.422;15.018;2023-12-28T14:54:02;5.98;;;5.90;;